Tiempo atmosférico en la estación meteorológica de Es Mercadal, Illes Balears (77 m.)

Fecha
DESCASC
Temp. máxima en grados centígrados (hora)
DESCASC
Temp. mínima en grados centígrados (hora)
DESCASC
Temp. media en grados centígrados
DESCASC
Racha de viento máxima en m/sg (hora)
DESCASC
Velocidad máxima media en intervalos de 10 minutos(hora)
DESCASC
Precipitaciones diarias en mm
DESCASC
Precipitaciones de 00:00 a 06:00 en mm
DESCASC
Precipitaciones de 06:00 a 12:00 en mm
DESCASC
Precipitaciones de 12:00 a 18:00 en mm
DESCASC
Precipitaciones de 18:00 a 24:00 en mm
DESCASC
17-08-2017 29.8 (16:10) 21.9 (02:40) 25.8 6.94 (10:40) 5 (13:10) 0 0 0 0 0
16-08-2017 33.5 (13:00) 22.8 (06:20) 28.1 8.89 (14:50) 5.28 (13:30) 0 0 0 0 0
15-08-2017 32.7 (14:20) 21.6 (00:00) 27.2 9.44 (10:30) 6.11 (10:40) 0 0 0 0 0
14-08-2017 30.3 (15:20) 18.8 (03:40) 24.5 9.17 (16:00) 5.83 (13:40) 0 0 0 0 0
13-08-2017 27.3 (15:10) 19.3 (00:00) 23.3 8.89 (14:40) 5 (14:10) 0 0 0 0 0
12-08-2017 25.3 (15:30) 17.2 (00:00) 21.3 6.94 (15:00) 4.17 (16:30) 0 0 0 0 0
11-08-2017 24.1 (11:20) 17.5 (00:00) 20.8 8.33 (18:10) 5.83 (18:10) 0.2 0 0 0.2 0
10-08-2017 23.3 (16:40) 17.6 (00:00) 20.4 15 (08:30) 10.28 (08:30) 4 0.4 3.6 0 0
09-08-2017 26.4 (13:10) 22 (00:00) 24.2 12.5 (23:50) 8.06 (05:20) 0 0 0 0 0
08-08-2017 31.9 (12:50) 23.5 (00:00) 27.7 13.61 (05:00) 9.72 (04:40) 0 0 0 0 0
07-08-2017 32.8 (15:00) 22.2 (00:00) 27.5 8.33 (13:50) 5.83 (15:40) 0 0 0 0 0
06-08-2017 28.1 (13:10) 23.6 (00:00) 25.9 12.5 (13:20) 8.33 (11:20) 0 0 0 0 0
05-08-2017 32.3 (16:40) 24.4 (00:00) 28.3 10.83 (10:20) 7.5 (10:30) 0 0 0 0 0
04-08-2017 31.7 (17:50) 24.7 (00:00) 28.2 8.33 (14:50) 5.28 (14:50) 0 0 0 0 0
03-08-2017 40.9 (16:10) 26.7 (00:00) 33.8 15.56 (03:00) 10.83 (02:50) 0 0 0 0 0
02-08-2017 35.8 (16:20) 27.3 (00:00) 31.5 11.39 (01:20) 7.22 (01:20) 0 0 0 0 0
01-08-2017 35.6 (14:40) 25.7 (00:00) 30.6 13.33 (22:50) 8.61 (00:10) 0 0 0 0 0
31-07-2017 36.5 (17:00) 23.5 (00:00) 30 12.78 (20:00) 8.06 (23:59) 0 0 0 0 0
30-07-2017 37.2 (16:20) 21.6 (00:00) 29.4 9.17 (23:20) 5.83 (22:40) 0 0 0 0 0
29-07-2017 34.6 (16:10) 21.8 (00:00) 28.2 9.17 (13:10) 5.56 (13:10) 0 0 0 0 0
28-07-2017 33.1 (13:40) 22 (00:00) 27.5 7.5 (14:50) 5.28 (17:30) 0 0 0 0 0
27-07-2017 30 (13:00) 19.3 (00:00) 24.6 9.17 (17:40) 6.39 (17:40) 0 0 0 0 0
26-07-2017 25.1 (15:00) 18.4 (00:00) 21.8 12.22 (08:00) 6.67 (08:00) 8.4 0 8.4 0 0
25-07-2017 25.6 (15:00) 22.4 (00:00) 24 16.11 (13:00) 10 (13:10) 0 0 0 0 0
24-07-2017 28.3 (19:10) 20.2 (00:00) 24.3 8.33 (17:00) 5.56 (19:50) 0 0 0 0 0
23-07-2017 28 (12:20) 21.9 (00:00) 24.9 10 (14:00) 7.22 (14:00) 0 0 0 0 0
22-07-2017 31.4 (15:30) 22.7 (00:00) 27.1 10 (14:40) 5.83 (14:30) 0 0 0 0 0
21-07-2017 28.3 (12:50) 22.4 (00:00) 25.3 7.5 (16:50) 5 (16:50) 0 0 0 0 0
20-07-2017 29.7 (13:50) 22.7 (00:00) 26.2 8.06 (04:00) 6.11 (03:50) 0 0 0 0 0
19-07-2017 30.6 (12:30) 21 (00:00) 25.8 13.33 (15:00) 8.61 (14:00) 0 0 0 0 0

Gráficas

Temp. máximas Temp. mínimas Temp. medias Precipitaciones Rachas de viento máximas Velocidades máximas media en intervalos de 10 minutos

Datos horarios

Fecha y hora oficial Temperatura (ºC) Velocidad del viento (km/h) Dirección del viento Racha (km/h) Dirección de racha Precipitación (mm) Presión (hPa) Tendencia (hPa) Humedad (%)
2017-08-17 23:00:00 23.3 0 Calma 3 Oeste 0 -- -- 85
2017-08-17 22:00:00 24 0 Calma 6 Nordeste 0 -- -- 83
2017-08-17 21:00:00 25 6 Nordeste 13 Norte 0 -- -- 79
2017-08-17 20:00:00 26.3 10 Nordeste 18 Norte 0 -- -- 72
2017-08-17 19:00:00 28.1 10 Norte 15 Norte 0 -- -- 64
2017-08-17 18:00:00 28.8 10 Norte 17 Norte 0 -- -- 61
2017-08-17 17:00:00 29.1 13 Norte 21 Nordeste 0 -- -- 61
2017-08-17 16:00:00 29.6 13 Nordeste 22 Nordeste 0 -- -- 58
2017-08-17 15:00:00 29.4 12 Nordeste 24 Norte 0 -- -- 59
2017-08-17 14:00:00 28.8 13 Nordeste 24 Norte 0 -- -- 65
2017-08-17 13:00:00 28.8 12 Nordeste 22 Norte 0 -- -- 64
2017-08-17 12:00:00 28 14 Norte 23 Nordeste 0 -- -- 66
2017-08-17 11:00:00 27.6 14 Nordeste 25 Nordeste 0 -- -- 66
2017-08-17 10:00:00 27 14 Nordeste 21 Nordeste 0 -- -- 66
2017-08-17 09:00:00 25.7 7 Nordeste 12 Nordeste 0 -- -- 77
2017-08-17 08:00:00 22.9 5 Nordeste 9 Nordeste 0 -- -- 97
2017-08-17 07:00:00 22.1 4 Nordeste 15 Norte 0 -- -- 97
2017-08-17 06:00:00 21.9 3 Oeste 6 Nordeste 0 -- -- 96
2017-08-17 05:00:00 22.3 5 Norte 9 Norte 0 -- -- 93
2017-08-17 04:00:00 22.3 8 Norte 9 Norte 0 -- -- 95
2017-08-17 03:00:00 21.9 4 Nordeste 6 Norte 0 -- -- 92
2017-08-17 02:00:00 22.1 0 Calma 3 Noroeste 0 -- -- 88
2017-08-17 01:00:00 22.8 0 Calma 5 Noroeste 0 -- -- 87
2017-08-17 00:00:00 23.3 4 Oeste 7 Sudeste 0 -- -- 86
2017-08-16 23:00:00 24.5 3 Norte 12 Nordeste 0 -- -- 83
2017-08-16 22:00:00 25 3 Nordeste 14 Nordeste 0 -- -- 80
2017-08-16 21:00:00 25.5 9 Nordeste 23 Este 0 -- -- 78
2017-08-16 20:00:00 27.5 14 Este 22 Este 0 -- -- 67
2017-08-16 19:00:00 30.4 10 Sudeste 18 Este 0 -- -- 49
2017-08-16 18:00:00 31.6 9 Sudeste 22 Este 0 -- -- 44
2017-08-16 17:00:00 32.4 12 Sur 23 Este 0 -- -- 40
2017-08-16 16:00:00 32.5 16 Sudeste 27 Este 0 -- -- 42
2017-08-16 15:00:00 33.1 14 Sudeste 32 Este 0 -- -- 42
2017-08-16 14:00:00 32.8 17 Este 28 Este 0 -- -- 46
2017-08-16 13:00:00 33.5 13 Este 25 Este 0 -- -- 43
2017-08-16 12:00:00 31.6 15 Sudeste 26 Este 0 -- -- 44
2017-08-16 11:00:00 30.6 10 Este 26 Este 0 -- -- 57
2017-08-16 10:00:00 28.5 11 Este 19 Este 0 -- -- 68
2017-08-16 09:00:00 25.6 8 Nordeste 13 Nordeste 0 -- -- 88
2017-08-16 08:00:00 23.4 3 Norte 7 Nordeste 0 -- -- 98
2017-08-16 07:00:00 23.1 5 Nordeste 9 Nordeste 0 -- -- 98
2017-08-16 06:00:00 22.9 0 Calma 9 Este 0 -- -- 96
2017-08-16 05:00:00 23.5 5 Nordeste 13 Nordeste 0 -- -- 97
2017-08-16 04:00:00 23.5 7 Norte 14 Nordeste 0 -- -- 95
2017-08-16 03:00:00 23.9 0 Calma 10 Sudeste 0 -- -- 94
2017-08-16 02:00:00 24.1 3 Este 11 Este 0 -- -- 93
2017-08-16 01:00:00 24.2 8 Este 12 Este 0 -- -- 93
2017-08-16 00:00:00 24.4 7 Este 12 Este 0 -- -- 90
2017-08-15 23:00:00 24.6 4 Nordeste 14 Sudeste 0 -- -- 90
2017-08-15 22:00:00 25.1 3 Sudeste 19 Este 0 -- -- 89
2017-08-15 21:00:00 25.8 9 Este 24 Este 0 -- -- 86
2017-08-15 20:00:00 27.8 8 Este 20 Sudeste 0 -- -- 73
2017-08-15 19:00:00 28.8 11 Sudeste 26 Sur 0 -- -- 70
2017-08-15 18:00:00 31.2 13 Sudeste 29 Sudeste 0 -- -- 60
2017-08-15 17:00:00 32.3 17 Sur 27 Sur 0 -- -- 51
2017-08-15 16:00:00 32.4 14 Sudeste 30 Sudeste 0 -- -- 53
2017-08-15 15:00:00 32.5 16 Sudeste 33 Este 0 -- -- 51
2017-08-15 14:00:00 32.2 19 Este 32 Este 0 -- -- 40
2017-08-15 13:00:00 30.5 18 Sudeste 29 Este 0 -- -- 51
2017-08-15 12:00:00 29.9 16 Sudeste 33 Este 0 -- -- 56
2017-08-15 11:00:00 29.1 20 Este 34 Este 0 -- -- 57
2017-08-15 10:00:00 27.8 19 Este 31 Este 0 -- -- 61
2017-08-15 09:00:00 25.8 15 Este 27 Este 0 -- -- 78
2017-08-15 08:00:00 22.7 0 Calma 9 Nordeste 0 -- -- 95
2017-08-15 07:00:00 21.8 3 Norte 11 Este 0 -- -- 94
2017-08-15 06:00:00 22.1 7 Nordeste 11 Nordeste 0 -- -- 94
2017-08-15 05:00:00 22.1 3 Sur 8 Sudoeste 0 -- -- 91
2017-08-15 04:00:00 22 5 Sudeste 10 Sur 0 -- -- 89
2017-08-15 03:00:00 22.3 5 Sur 9 Sudeste 0 -- -- 88
2017-08-15 02:00:00 22.5 4 Sudeste 11 Este 0 -- -- 85
2017-08-15 01:00:00 22.9 7 Sudeste 17 Sudeste 0 -- -- 83
2017-08-15 00:00:00 23.1 8 Nordeste 24 Nordeste 0 -- -- 84
2017-08-14 23:00:00 23 5 Nordeste 16 Nordeste 0 -- -- 84
2017-08-14 22:00:00 23.3 5 Nordeste 17 Nordeste 0 -- -- 78
2017-08-14 21:00:00 24.1 12 Este 25 Este 0 -- -- 74
2017-08-14 20:00:00 25.7 14 Sudeste 25 Este 0 -- -- 65
2017-08-14 19:00:00 26.9 17 Este 27 Este 0 -- -- 59
2017-08-14 18:00:00 28.2 16 Este 31 Este 0 -- -- 55
2017-08-14 17:00:00 28.9 14 Este 29 Este 0 -- -- 53
2017-08-14 16:00:00 28.9 19 Este 33 Este 0 -- -- 56
2017-08-14 15:00:00 29.8 16 Este 29 Este 0 -- -- 52
2017-08-14 14:00:00 29.6 17 Este 30 Este 0 -- -- 43
2017-08-14 13:00:00 29.7 15 Este 30 Este 0 -- -- 43
2017-08-14 12:00:00 28.2 16 Este 29 Este 0 -- -- 49
2017-08-14 11:00:00 27.6 14 Este 24 Este 0 -- -- 52
2017-08-14 10:00:00 26 17 Nordeste 22 Nordeste 0 -- -- 56
2017-08-14 09:00:00 24.1 8 Nordeste 14 Este 0 -- -- 72
2017-08-14 08:00:00 20.4 2 Nordeste 5 Norte 0 -- -- 87
2017-08-14 07:00:00 18.9 0 Calma 5 Oeste 0 -- -- 89
2017-08-14 06:00:00 19.2 2 Sudoeste 4 Sudoeste 0 -- -- 90
2017-08-14 05:00:00 19.2 0 Calma 4 Oeste 0 -- -- 87
2017-08-14 04:00:00 19 3 Oeste 5 Oeste 0 -- -- 85
2017-08-14 03:00:00 19.6 0 Calma 5 Sudeste 0 -- -- 82
2017-08-14 02:00:00 20.1 3 Oeste 8 Sur 0 -- -- 78
2017-08-14 01:00:00 20.9 5 Sur 8 Sur 0 -- -- 75
2017-08-14 00:00:00 20.3 0 Calma 4 Sur 0 -- -- 72
2017-08-13 23:00:00 20.9 0 Calma 4 Oeste 0 -- -- 69
2017-08-13 22:00:00 22.3 2 Este 5 Nordeste 0 -- -- 64
2017-08-13 21:00:00 23.2 4 Nordeste 16 Nordeste 0 -- -- 62
2017-08-13 20:00:00 25 10 Nordeste 17 Nordeste 0 -- -- 50
2017-08-13 19:00:00 25.7 13 Nordeste 23 Nordeste 0 -- -- 51
2017-08-13 18:00:00 26.1 13 Nordeste 23 Nordeste 0 -- -- 49
2017-08-13 17:00:00 26.4 15 Nordeste 25 Nordeste 0 -- -- 50
2017-08-13 16:00:00 26.6 15 Nordeste 26 Nordeste 0 -- -- 53
2017-08-13 15:00:00 26.9 12 Norte 32 Nordeste 0 -- -- 50
2017-08-13 14:00:00 26.6 15 Norte 25 Nordeste 0 -- -- 55
2017-08-13 13:00:00 26.7 11 Norte 24 Norte 0 -- -- 52
2017-08-13 12:00:00 26.7 12 Norte 22 Nordeste 0 -- -- 46
2017-08-13 11:00:00 25.6 10 Nordeste 21 Nordeste 0 -- -- 59
2017-08-13 10:00:00 24.8 11 Nordeste 19 Nordeste 0 -- -- 62
2017-08-13 09:00:00 24.6 7 Norte 15 Norte 0 -- -- 64
2017-08-13 08:00:00 21.7 0 Calma 3 Sudoeste 0 -- -- 77
2017-08-13 07:00:00 19.9 0 Calma 3 Noroeste 0 -- -- 83
2017-08-13 06:00:00 19.7 4 Oeste 5 Oeste 0 -- -- 86
2017-08-13 05:00:00 19.9 3 Noroeste 8 Sudoeste 0 -- -- 85
2017-08-13 04:00:00 19.6 7 Sudoeste 8 Sudoeste 0 -- -- 85
2017-08-13 03:00:00 19.3 5 Sudoeste 7 Sudoeste 0 -- -- 84
2017-08-13 02:00:00 19.7 6 Sudoeste 14 Sudoeste 0 -- -- 82
2017-08-13 01:00:00 19.5 5 Sudoeste 6 Sudoeste 0 -- -- 82
2017-08-13 00:00:00 19.6 3 Sur 6 Sudoeste 0 -- -- 80
2017-08-12 23:00:00 20.2 2 Sudoeste 8 Sudeste 0 -- -- 78
2017-08-12 22:00:00 21.1 7 Sudeste 9 Sudeste 0 -- -- 74
2017-08-12 21:00:00 22.5 3 Norte 8 Sur 0 -- -- 70
2017-08-12 20:00:00 23.6 6 Sudoeste 13 Sudoeste 0 -- -- 66
2017-08-12 19:00:00 24.2 4 Nordeste 16 Nordeste 0 -- -- 63
2017-08-12 18:00:00 24.4 8 Nordeste 20 Nordeste 0 -- -- 62
2017-08-12 17:00:00 24.9 8 Norte 22 Nordeste 0 -- -- 60
2017-08-12 16:00:00 24.7 7 Norte 20 Norte 0 -- -- 60
2017-08-12 15:00:00 25.2 12 Nordeste 25 Nordeste 0 -- -- 59
2017-08-12 14:00:00 23.9 11 Norte 21 Norte 0 -- -- 62
2017-08-12 13:00:00 24.4 11 Norte 22 Norte 0 -- -- 60
2017-08-12 12:00:00 24.9 13 Norte 23 Norte 0 -- -- 58
2017-08-12 11:00:00 23.4 9 Norte 22 Norte 0 -- -- 61
2017-08-12 10:00:00 22.7 12 Norte 19 Norte 0 -- -- 63
2017-08-12 09:00:00 22.4 5 Nordeste 9 Nordeste 0 -- -- 63
2017-08-12 08:00:00 19.1 0 Calma 7 Sudoeste 0 -- -- 73
2017-08-12 07:00:00 17.7 2 Sur 6 Nordeste 0 -- -- 77
2017-08-12 06:00:00 17.7 4 Nordeste 5 Nordeste 0 -- -- 77
2017-08-12 05:00:00 18.1 0 Calma 5 Sudoeste 0 -- -- 76
2017-08-12 04:00:00 18.3 0 Calma 5 Oeste 0 -- -- 77
2017-08-12 03:00:00 18.4 0 Calma 5 Nordeste 0 -- -- 77
2017-08-12 02:00:00 19.1 0 Calma 5 Nordeste 0 -- -- 75
2017-08-12 01:00:00 19.4 3 Nordeste 10 Nordeste 0 -- -- 74
2017-08-12 00:00:00 19.8 6 Este 12 Este 0 -- -- 72
2017-08-11 23:00:00 20.2 8 Este 18 Este 0 -- -- 71
2017-08-11 22:00:00 20.8 12 Este 22 Nordeste 0 -- -- 69
2017-08-11 21:00:00 21.1 14 Este 26 Este 0 -- -- 68
2017-08-11 20:00:00 21.4 15 Este 26 Este 0 -- -- 67
2017-08-11 19:00:00 21.9 16 Nordeste 30 Nordeste 0 -- -- 65
2017-08-11 18:00:00 22.4 18 Este 30 Nordeste 0 -- -- 63
2017-08-11 17:00:00 22.5 17 Nordeste 29 Nordeste 0 -- -- 63
2017-08-11 16:00:00 22.6 15 Este 24 Nordeste 0 -- -- 63
2017-08-11 15:00:00 22.4 15 Este 28 Este 0 -- -- 65
2017-08-11 14:00:00 22.5 16 Este 27 Este 0 -- -- 69
2017-08-11 13:00:00 21.4 14 Este 27 Nordeste 0.2 -- -- 76
2017-08-11 12:00:00 23.2 11 Nordeste 28 Este 0 -- -- 64
2017-08-11 11:00:00 23.4 16 Nordeste 27 Nordeste 0 -- -- 66
2017-08-11 10:00:00 22.3 17 Nordeste 28 Nordeste 0 -- -- 74
2017-08-11 09:00:00 22.1 16 Noroeste 28 Noroeste 0 -- -- 73
2017-08-11 08:00:00 20.9 12 Sudoeste 26 Sudoeste 0 -- -- 73
2017-08-11 07:00:00 19.1 10 Sudoeste 15 Sudoeste 0 -- -- 78
2017-08-11 06:00:00 18.4 8 Sudoeste 14 Sudoeste 0 -- -- 81
2017-08-11 05:00:00 18.5 12 Sudoeste 17 Sur 0 -- -- 81
2017-08-11 04:00:00 18 10 Sudoeste 13 Sur 0 -- -- 81
2017-08-11 03:00:00 17.9 5 Sur 8 Sur 0 -- -- 81
2017-08-11 02:00:00 17.8 5 Sur 10 Sur 0 -- -- 82
2017-08-11 01:00:00 17.9 4 Sur 5 Sur 0 -- -- 82
2017-08-11 00:00:00 18.2 0 Calma 5 Oeste 0 -- -- 80
2017-08-10 23:00:00 18.6 4 Sudoeste 5 Sudoeste 0 -- -- 79
2017-08-10 22:00:00 19.7 2 Sudeste 9 Nordeste 0 -- -- 74
2017-08-10 21:00:00 20.9 6 Norte 14 Norte 0 -- -- 68
2017-08-10 20:00:00 22.2 11 Norte 21 Norte 0 -- -- 63
2017-08-10 19:00:00 23 11 Norte 25 Nordeste 0 -- -- 60
2017-08-10 18:00:00 22.9 16 Nordeste 33 Nordeste 0 -- -- 59
2017-08-10 17:00:00 23.3 20 Norte 37 Nordeste 0 -- -- 56
2017-08-10 16:00:00 23 23 Nordeste 44 Nordeste 0 -- -- 57
2017-08-10 15:00:00 22.1 25 Nordeste 41 Nordeste 0 -- -- 58
2017-08-10 14:00:00 21.1 26 Nordeste 40 Nordeste 0 -- -- 60
2017-08-10 13:00:00 20.7 22 Norte 42 Nordeste 0 -- -- 63
2017-08-10 12:00:00 21.3 23 Nordeste 44 Nordeste 0 -- -- 56
2017-08-10 11:00:00 19.8 22 Norte 39 Nordeste 0 -- -- 69
2017-08-10 10:00:00 20.4 26 Norte 45 Norte 0 -- -- 65
2017-08-10 09:00:00 19.8 31 Norte 54 Norte 0.2 -- -- 69
2017-08-10 08:00:00 19.5 30 Norte 53 Norte 0 -- -- 73
2017-08-10 07:00:00 18.5 28 Norte 46 Nordeste 3.4 -- -- 88
2017-08-10 06:00:00 19.5 19 Norte 49 Norte 0.4 -- -- 79
2017-08-10 05:00:00 21 30 Norte 49 Norte 0 -- -- 69
2017-08-10 04:00:00 21 32 Norte 49 Norte 0 -- -- 68
2017-08-10 03:00:00 21 29 Norte 49 Norte 0 -- -- 69
2017-08-10 02:00:00 21.3 28 Norte 46 Norte 0 -- -- 69
2017-08-10 01:00:00 21.7 25 Norte 39 Nordeste 0 -- -- 70
2017-08-10 00:00:00 22 28 Norte 45 Norte 0 -- -- 68
2017-08-09 23:00:00 22.8 24 Norte 36 Nordeste 0 -- -- 64
2017-08-09 22:00:00 23.1 19 Nordeste 35 Nordeste 0 -- -- 59
2017-08-09 21:00:00 23.3 21 Nordeste 35 Nordeste 0 -- -- 62
2017-08-09 20:00:00 23.6 21 Nordeste 35 Nordeste 0 -- -- 66
2017-08-09 19:00:00 24.7 23 Nordeste 37 Nordeste 0 -- -- 60
2017-08-09 18:00:00 24.5 21 Nordeste 38 Nordeste 0 -- -- 61
2017-08-09 17:00:00 25 24 Nordeste 36 Norte 0 -- -- 61
2017-08-09 16:00:00 25.3 22 Nordeste 38 Nordeste 0 -- -- 60
2017-08-09 15:00:00 25.8 23 Nordeste 38 Nordeste 0 -- -- 58
2017-08-09 14:00:00 26 23 Nordeste 39 Nordeste 0 -- -- 56
2017-08-09 13:00:00 25.9 21 Nordeste 34 Nordeste 0 -- -- 59
2017-08-09 12:00:00 26.2 23 Nordeste 37 Nordeste 0 -- -- 58
2017-08-09 11:00:00 25.3 25 Nordeste 37 Nordeste 0 -- -- 64
2017-08-09 10:00:00 24.9 23 Nordeste 37 Nordeste 0 -- -- 65
2017-08-09 09:00:00 24.2 24 Nordeste 36 Nordeste 0 -- -- 65
2017-08-09 08:00:00 23.2 21 Nordeste 33 Nordeste 0 -- -- 72
2017-08-09 07:00:00 22.5 24 Nordeste 39 Nordeste 0 -- -- 75
2017-08-09 06:00:00 22.6 26 Nordeste 44 Nordeste 0 -- -- 73
2017-08-09 05:00:00 22.8 25 Nordeste 41 Norte 0 -- -- 73
2017-08-09 04:00:00 22.9 23 Nordeste 37 Nordeste 0 -- -- 71
2017-08-09 03:00:00 23.1 23 Nordeste 41 Norte 0 -- -- 71
2017-08-09 02:00:00 23.4 23 Norte 40 Nordeste 0 -- -- 69
2017-08-09 01:00:00 23.5 23 Norte 38 Norte 0 -- -- 69
2017-08-09 00:00:00 23.6 24 Nordeste 40 Norte 0 -- -- 71
2017-08-08 23:00:00 23.8 23 Nordeste 39 Nordeste 0 -- -- 75
2017-08-08 22:00:00 23.6 23 Nordeste 38 Norte 0 -- -- 79
2017-08-08 21:00:00 23.8 22 Nordeste 38 Nordeste 0 -- -- 80
2017-08-08 20:00:00 24 24 Nordeste 40 Nordeste 0 -- -- 84
2017-08-08 19:00:00 24.3 28 Nordeste 39 Nordeste 0 -- -- 87
2017-08-08 18:00:00 24.8 26 Nordeste 41 Nordeste 0 -- -- 86
2017-08-08 17:00:00 28 27 Norte 40 Norte 0 -- -- 78
2017-08-08 16:00:00 29.9 17 Nordeste 28 Nordeste 0 -- -- 67
2017-08-08 15:00:00 30.1 17 Norte 26 Norte 0 -- -- 68
2017-08-08 14:00:00 30.1 18 Norte 28 Nordeste 0 -- -- 67
2017-08-08 13:00:00 31.2 17 Norte 23 Norte 0 -- -- 64
2017-08-08 12:00:00 30.9 15 Sur 30 Sudoeste 0 -- -- 64
2017-08-08 11:00:00 30.3 14 Sur 26 Sudoeste 0 -- -- 67
2017-08-08 10:00:00 28.2 17 Sudoeste 29 Sur 0 -- -- 76
2017-08-08 09:00:00 27 12 Sudoeste 28 Sur 0 -- -- 79
2017-08-08 08:00:00 26.2 15 Sur 30 Sudeste 0 -- -- 80
2017-08-08 07:00:00 25.5 18 Sur 39 Sur 0 -- -- 82
2017-08-08 06:00:00 25.6 28 Sur 45 Sur 0 -- -- 81
2017-08-08 05:00:00 25.7 33 Sur 49 Sudeste 0 -- -- 84
2017-08-08 04:00:00 25.5 26 Sur 40 Sur 0 -- -- 86
2017-08-08 03:00:00 25.5 24 Sur 35 Sur 0 -- -- 83
2017-08-08 02:00:00 25.5 22 Sur 32 Sur 0 -- -- 83
2017-08-08 01:00:00 25.3 16 Sur 26 Sur 0 -- -- 85
2017-08-08 00:00:00 25.2 14 Sur 19 Sur 0 -- -- 84
2017-08-07 23:00:00 25.3 10 Sudeste 17 Sur 0 -- -- 80
2017-08-07 22:00:00 26 10 Sur 18 Sur 0 -- -- 75
2017-08-07 21:00:00 27.1 12 Sur 23 Sur 0 -- -- 57
2017-08-07 20:00:00 28.9 16 Sur 26 Sudoeste 0 -- -- 50
2017-08-07 19:00:00 30.3 18 Sudoeste 27 Sudoeste 0 -- -- 43
2017-08-07 18:00:00 31.5 17 Sudoeste 28 Sur 0 -- -- 43
2017-08-07 17:00:00 31.9 18 Sur 28 Sudoeste 0 -- -- 43
2017-08-07 16:00:00 32.1 20 Sudoeste 28 Sudoeste 0 -- -- 41
2017-08-07 15:00:00 32.8 16 Sudoeste 30 Sur 0 -- -- 44
2017-08-07 14:00:00 31.4 18 Sur 30 Sur 0 -- -- 51
2017-08-07 13:00:00 31.3 17 Sur 27 Sur 0 -- -- 53
2017-08-07 12:00:00 30.4 12 Nordeste 21 Nordeste 0 -- -- 50
2017-08-07 11:00:00 29.3 9 Norte 17 Nordeste 0 -- -- 54
2017-08-07 10:00:00 27.9 12 Nordeste 21 Nordeste 0 -- -- 58
2017-08-07 09:00:00 26.4 12 Nordeste 19 Nordeste 0 -- -- 65
2017-08-07 08:00:00 24.3 7 Norte 9 Norte 0 -- -- 77
2017-08-07 07:00:00 22.8 6 Nordeste 10 Norte 0 -- -- 84
2017-08-07 06:00:00 22.5 6 Norte 10 Norte 0 -- -- 85
2017-08-07 05:00:00 22.3 8 Norte 11 Norte 0 -- -- 85
2017-08-07 04:00:00 22.7 4 Norte 8 Norte 0 -- -- 85
2017-08-07 03:00:00 22.7 5 Norte 8 Nordeste 0 -- -- 85
2017-08-07 02:00:00 23.1 4 Nordeste 8 Norte 0 -- -- 83
2017-08-07 01:00:00 23.4 5 Norte 9 Norte 0 -- -- 82
2017-08-07 00:00:00 23.6 5 Nordeste 12 Norte 0 -- -- 81
2017-08-06 23:00:00 23.9 9 Nordeste 12 Norte 0 -- -- 78
2017-08-06 22:00:00 24.2 9 Norte 15 Nordeste 0 -- -- 75
2017-08-06 21:00:00 24.6 10 Nordeste 19 Nordeste 0 -- -- 73
2017-08-06 20:00:00 25.5 14 Nordeste 27 Nordeste 0 -- -- 69
2017-08-06 19:00:00 25.9 20 Norte 32 Nordeste 0 -- -- 67
2017-08-06 18:00:00 26.4 22 Nordeste 33 Nordeste 0 -- -- 67
2017-08-06 17:00:00 26.6 22 Nordeste 36 Norte 0 -- -- 68
2017-08-06 16:00:00 26.9 25 Nordeste 37 Nordeste 0 -- -- 70
2017-08-06 15:00:00 27.2 25 Nordeste 40 Nordeste 0 -- -- 69
2017-08-06 14:00:00 27.3 24 Nordeste 45 Nordeste 0 -- -- 69
2017-08-06 13:00:00 27.7 24 Nordeste 40 Nordeste 0 -- -- 65
2017-08-06 12:00:00 26.4 24 Nordeste 40 Nordeste 0 -- -- 71
2017-08-06 11:00:00 27.4 25 Nordeste 42 Nordeste 0 -- -- 69
2017-08-06 10:00:00 26.6 28 Norte 42 Nordeste 0 -- -- 71
2017-08-06 09:00:00 25.9 24 Nordeste 37 Norte 0 -- -- 75
2017-08-06 08:00:00 25.3 19 Norte 28 Nordeste 0 -- -- 81
2017-08-06 07:00:00 24.9 15 Norte 22 Norte 0 -- -- 84
2017-08-06 06:00:00 25.2 16 Norte 23 Nordeste 0 -- -- 83
2017-08-06 05:00:00 25.6 15 Norte 22 Norte 0 -- -- 82
2017-08-06 04:00:00 26 18 Norte 25 Norte 0 -- -- 80
2017-08-06 03:00:00 25.5 10 Norte 15 Norte 0 -- -- 83
2017-08-06 02:00:00 25.5 9 Norte 13 Nordeste 0 -- -- 83
2017-08-06 01:00:00 25.4 7 Norte 15 Nordeste 0 -- -- 85
2017-08-06 00:00:00 25.9 9 Norte 15 Norte 0 -- -- 84
2017-08-05 23:00:00 26.2 6 Nordeste 12 Norte 0 -- -- 83
2017-08-05 22:00:00 26.3 7 Nordeste 12 Nordeste 0 -- -- 79
2017-08-05 21:00:00 27.9 7 Nordeste 13 Nordeste 0 -- -- 69
2017-08-05 20:00:00 30.1 9 Nordeste 15 Nordeste 0 -- -- 59
2017-08-05 19:00:00 31.1 9 Nordeste 14 Nordeste 0 -- -- 54
2017-08-05 18:00:00 31.7 13 Nordeste 19 Nordeste 0 -- -- 51
2017-08-05 17:00:00 32 12 Nordeste 21 Nordeste 0 -- -- 51
2017-08-05 16:00:00 32 14 Nordeste 23 Nordeste 0 -- -- 52
2017-08-05 15:00:00 31.7 17 Nordeste 23 Nordeste 0 -- -- 53
2017-08-05 14:00:00 31.6 14 Nordeste 27 Nordeste 0 -- -- 53
2017-08-05 13:00:00 31.2 18 Nordeste 27 Nordeste 0 -- -- 54
2017-08-05 12:00:00 30.7 22 Nordeste 33 Nordeste 0 -- -- 56
2017-08-05 11:00:00 30.2 23 Nordeste 39 Nordeste 0 -- -- 57
2017-08-05 10:00:00 29.9 18 Nordeste 29 Nordeste 0 -- -- 59
2017-08-05 09:00:00 28.6 12 Norte 20 Norte 0 -- -- 67
2017-08-05 08:00:00 26.6 6 Norte 10 Norte 0 -- -- 79
2017-08-05 07:00:00 25 3 Norte 10 Norte 0 -- -- 91
2017-08-05 06:00:00 24.6 8 Norte 11 Norte 0 -- -- 93
2017-08-05 05:00:00 24.5 5 Nordeste 8 Nordeste 0 -- -- 96
2017-08-05 04:00:00 24.7 5 Nordeste 8 Nordeste 0 -- -- 95
2017-08-05 03:00:00 24.5 7 Nordeste 8 Nordeste 0 -- -- 95
2017-08-05 02:00:00 24.5 4 Nordeste 5 Nordeste 0 -- -- 89
2017-08-05 01:00:00 24.9 3 Nordeste 4 Nordeste 0 -- -- 88
2017-08-05 00:00:00 25.1 2 Nordeste 3 Norte 0 -- -- 87
2017-08-04 23:00:00 25.6 3 Este 5 Norte 0 -- -- 86
2017-08-04 22:00:00 26.4 3 Nordeste 11 Norte 0 -- -- 83
2017-08-04 21:00:00 27.7 8 Norte 10 Norte 0 -- -- 75
2017-08-04 20:00:00 30.1 8 Norte 13 Norte 0 -- -- 62
2017-08-04 19:00:00 31.5 8 Norte 13 Norte 0 -- -- 51
2017-08-04 18:00:00 31.4 10 Norte 21 Norte 0 -- -- 53
2017-08-04 17:00:00 31.3 11 Norte 20 Noroeste 0 -- -- 55
2017-08-04 16:00:00 30.7 17 Norte 26 Norte 0 -- -- 56
2017-08-04 15:00:00 30.9 18 Norte 30 Norte 0 -- -- 64
2017-08-04 14:00:00 30.5 16 Norte 26 Norte 0 -- -- 69
2017-08-04 13:00:00 30.3 15 Norte 22 Norte 0 -- -- 72
2017-08-04 12:00:00 31 14 Norte 23 Norte 0 -- -- 70
2017-08-04 11:00:00 30.3 9 Norte 16 Norte 0 -- -- 73
2017-08-04 10:00:00 29.2 7 Norte 13 Nordeste 0 -- -- 81
2017-08-04 09:00:00 27.1 7 Norte 10 Norte 0 -- -- 90
2017-08-04 08:00:00 25.1 0 Calma 6 Oeste 0 -- -- 99
2017-08-04 07:00:00 24.9 3 Oeste 6 Sudoeste 0 -- -- 98
2017-08-04 06:00:00 25.2 5 Sudoeste 8 Sudoeste 0 -- -- 98
2017-08-04 05:00:00 25.4 4 Sudoeste 6 Sur 0 -- -- 96
2017-08-04 04:00:00 26 5 Sur 10 Sur 0 -- -- 97
2017-08-04 03:00:00 26.2 4 Sudoeste 11 Sudoeste 0 -- -- 96
2017-08-04 02:00:00 26.5 5 Sudoeste 19 Sur 0 -- -- 95
2017-08-04 01:00:00 26.9 15 Sur 23 Sur 0 -- -- 93
2017-08-04 00:00:00 26.9 9 Sur 21 Sur 0 -- -- 94
2017-08-03 23:00:00 27.1 12 Sur 25 Sur 0 -- -- 90
2017-08-03 22:00:00 27.7 11 Sudeste 18 Sudeste 0 -- -- 86
2017-08-03 21:00:00 29 8 Sudeste 15 Sudeste 0 -- -- 77
2017-08-03 20:00:00 29.9 13 Nordeste 19 Nordeste 0 -- -- 69
2017-08-03 19:00:00 31.2 12 Nordeste 20 Norte 0 -- -- 66
2017-08-03 18:00:00 32.4 13 Nordeste 24 Norte 0 -- -- 60
2017-08-03 17:00:00 33.3 17 Norte 26 Noroeste 0 -- -- 62
2017-08-03 16:00:00 40.4 17 Sudeste 30 Sudeste 0 -- -- 20
2017-08-03 15:00:00 39.7 14 Sur 28 Sudeste 0 -- -- 24
2017-08-03 14:00:00 37.4 12 Sur 23 Sudoeste 0 -- -- 37
2017-08-03 13:00:00 32.8 19 Sudoeste 36 Sudoeste 0 -- -- 62
2017-08-03 12:00:00 38 9 Sudeste 22 Nordeste 0 -- -- 28
2017-08-03 11:00:00 35.3 14 Nordeste 27 Nordeste 0 -- -- 32
2017-08-03 10:00:00 34.1 16 Nordeste 26 Norte 0 -- -- 37
2017-08-03 09:00:00 32.6 9 Nordeste 13 Nordeste 0 -- -- 43
2017-08-03 08:00:00 29.8 8 Nordeste 12 Nordeste 0 -- -- 53
2017-08-03 07:00:00 28.6 6 Nordeste 16 Nordeste 0 -- -- 55
2017-08-03 06:00:00 28.6 8 Sur 17 Sur 0 -- -- 55
2017-08-03 05:00:00 29.1 11 Sur 28 Sudoeste 0 -- -- 53
2017-08-03 04:00:00 28.7 19 Sur 48 Sudoeste 0 -- -- 54
2017-08-03 03:00:00 26.8 37 Sudoeste 56 Sudoeste 0 -- -- 87
2017-08-03 02:00:00 27.5 23 Sur 33 Sudeste 0 -- -- 67
2017-08-03 01:00:00 27.7 15 Sudeste 25 Sudeste 0 -- -- 73
2017-08-03 00:00:00 28 9 Sur 16 Sudeste 0 -- -- 66
2017-08-02 23:00:00 29 3 Oeste 15 Sudeste 0 -- -- 51
2017-08-02 22:00:00 28.9 3 Oeste 5 Oeste 0 -- -- 61
2017-08-02 21:00:00 31.2 0 Calma 10 Sur 0 -- -- 57
2017-08-02 20:00:00 32.4 8 Sudeste 14 Sudeste 0 -- -- 54
2017-08-02 19:00:00 35.3 4 Este 18 Nordeste 0 -- -- 48
2017-08-02 18:00:00 34.9 13 Nordeste 23 Nordeste 0 -- -- 52
2017-08-02 17:00:00 35.4 14 Norte 25 Norte 0 -- -- 54
2017-08-02 16:00:00 35.3 13 Norte 20 Norte 0 -- -- 55
2017-08-02 15:00:00 35.5 14 Nordeste 27 Nordeste 0 -- -- 58
2017-08-02 14:00:00 34.8 11 Norte 21 Norte 0 -- -- 56
2017-08-02 13:00:00 33.2 11 Norte 17 Norte 0 -- -- 63
2017-08-02 12:00:00 33.6 9 Sur 16 Sur 0 -- -- 50
2017-08-02 11:00:00 32 9 Sur 23 Sudeste 0 -- -- 60
2017-08-02 10:00:00 29.4 9 Este 15 Este 0 -- -- 71
2017-08-02 09:00:00 28.4 7 Sur 14 Sur 0 -- -- 76
2017-08-02 08:00:00 27.8 9 Noroeste 35 Sur 0 -- -- 78
2017-08-02 07:00:00 28.5 24 Sur 37 Sudoeste 0 -- -- 70
2017-08-02 06:00:00 30.4 6 Sur 25 Sur 0 -- -- 45
2017-08-02 05:00:00 30.7 15 Sur 26 Sudeste 0 -- -- 46
2017-08-02 04:00:00 31.2 2 Sur 14 Sudoeste 0 -- -- 40
2017-08-02 03:00:00 30.2 8 Sur 16 Sudeste 0 -- -- 51
2017-08-02 02:00:00 29.9 9 Sur 41 Este 0 -- -- 58
2017-08-02 01:00:00 28.9 15 Este 30 Este 0 -- -- 57
2017-08-02 00:00:00 27.5 13 Nordeste 24 Sudoeste 0 -- -- 76
2017-08-01 23:00:00 27.5 18 Oeste 48 Sudoeste 0 -- -- 80
2017-08-01 22:00:00 26.7 15 Nordeste 26 Nordeste 0 -- -- 91
2017-08-01 21:00:00 27.6 16 Nordeste 24 Norte 0 -- -- 85
2017-08-01 20:00:00 28.6 17 Nordeste 30 Norte 0 -- -- 79
2017-08-01 19:00:00 29 18 Norte 30 Norte 0 -- -- 80
2017-08-01 18:00:00 30.5 15 Norte 22 Norte 0 -- -- 73
2017-08-01 17:00:00 32 6 Norte 32 Sudoeste 0 -- -- 58
2017-08-01 16:00:00 33.4 22 Sudoeste 40 Sudoeste 0 -- -- 48
2017-08-01 15:00:00 35.1 15 Sudeste 33 Sur 0 -- -- 40
2017-08-01 14:00:00 34.1 5 Norte 22 Sur 0 -- -- 43
2017-08-01 13:00:00 32.9 5 Sudeste 28 Sur 0 -- -- 50
2017-08-01 12:00:00 32.7 22 Sur 33 Sur 0 -- -- 53
2017-08-01 11:00:00 29.3 11 Sur 22 Sur 0 -- -- 80
2017-08-01 10:00:00 30.1 13 Sur 40 Sur 0 -- -- 76
2017-08-01 09:00:00 28.4 14 Sur 24 Sur 0 -- -- 81
2017-08-01 08:00:00 26.6 9 Sudeste 35 Sudeste 0 -- -- 89
2017-08-01 07:00:00 26.2 23 Sudeste 33 Sur 0 -- -- 90
2017-08-01 06:00:00 25.8 13 Sur 31 Sudeste 0 -- -- 92
2017-08-01 05:00:00 25.7 10 Sudeste 24 Sur 0 -- -- 93
2017-08-01 04:00:00 26.2 16 Sur 24 Sur 0 -- -- 91
2017-08-01 03:00:00 26.6 17 Sur 33 Sur 0 -- -- 87
2017-08-01 02:00:00 26.3 18 Sudeste 37 Sudeste 0 -- -- 89
2017-08-01 01:00:00 26.3 18 Sudeste 46 Sur 0 -- -- 89
2017-08-01 00:00:00 26.9 29 Sur 41 Sur 0 -- -- 83
2017-07-31 23:00:00 26.8 16 Sur 33 Sudeste 0 -- -- 79
2017-07-31 22:00:00 26.6 18 Sudeste 27 Sudeste 0 -- -- 83
2017-07-31 21:00:00 27.6 14 Sudeste 37 Sudeste 0 -- -- 76
2017-07-31 20:00:00 28.8 28 Sudeste 46 Sudeste 0 -- -- 73
2017-07-31 19:00:00 32.4 11 Sudeste 27 Este 0 -- -- 58
2017-07-31 18:00:00 36 13 Sur 30 Sur 0 -- -- 46
2017-07-31 17:00:00 36.5 14 Sur 29 Sur 0 -- -- 31
2017-07-31 16:00:00 36.4 13 Sur 28 Sudoeste 0 -- -- 36
2017-07-31 15:00:00 34.9 15 Sur 34 Sur 0 -- -- 40
2017-07-31 14:00:00 34.9 16 Sudeste 31 Sudeste 0 -- -- 49
2017-07-31 13:00:00 34.2 13 Sudeste 25 Este 0 -- -- 50
2017-07-31 12:00:00 32.6 10 Este 27 Sudeste 0 -- -- 60
2017-07-31 11:00:00 31.1 14 Este 24 Sudeste 0 -- -- 63
2017-07-31 10:00:00 28.4 14 Nordeste 19 Nordeste 0 -- -- 77
2017-07-31 09:00:00 26 3 Este 7 Este 0 -- -- 89
2017-07-31 08:00:00 24.3 3 Este 10 Nordeste 0 -- -- 95
2017-07-31 07:00:00 23.6 6 Nordeste 15 Sur 0 -- -- 96
2017-07-31 06:00:00 24.5 5 Oeste 19 Sudeste 0 -- -- 95
2017-07-31 05:00:00 24.5 7 Sudeste 22 Sur 0 -- -- 95
2017-07-31 04:00:00 24.6 10 Sur 28 Sudeste 0 -- -- 95
2017-07-31 03:00:00 24.7 18 Sudeste 28 Sudeste 0 -- -- 95
2017-07-31 02:00:00 24.8 12 Sudeste 26 Sudeste 0 -- -- 93
2017-07-31 01:00:00 25.1 13 Sudeste 26 Sudeste 0 -- -- 90
2017-07-31 00:00:00 25.3 17 Sudeste 33 Sudeste 0 -- -- 87
2017-07-30 23:00:00 25.6 19 Sudeste 31 Sudeste 0 -- -- 84
2017-07-30 22:00:00 26.2 4 Sudoeste 13 Sudoeste 0 -- -- 78
2017-07-30 21:00:00 28 3 Sur 13 Sudeste 0 -- -- 69
2017-07-30 20:00:00 30.7 9 Sudeste 22 Sudeste 0 -- -- 58
2017-07-30 19:00:00 33.1 12 Sudeste 24 Sudeste 0 -- -- 49
2017-07-30 18:00:00 34.7 14 Sudeste 25 Este 0 -- -- 47
2017-07-30 17:00:00 36.3 16 Sudeste 28 Sudeste 0 -- -- 34
2017-07-30 16:00:00 36.9 14 Este 26 Sudeste 0 -- -- 35
2017-07-30 15:00:00 36.6 15 Sudeste 26 Sudeste 0 -- -- 36
2017-07-30 14:00:00 36.4 13 Sudeste 27 Sudeste 0 -- -- 34
2017-07-30 13:00:00 35.7 15 Sudeste 27 Sudeste 0 -- -- 34
2017-07-30 12:00:00 34.2 12 Sudeste 19 Sudeste 0 -- -- 47
2017-07-30 11:00:00 32.6 9 Este 17 Este 0 -- -- 48
2017-07-30 10:00:00 29.7 7 Sudeste 10 Sudeste 0 -- -- 60
2017-07-30 09:00:00 26.8 2 Nordeste 6 Norte 0 -- -- 78
2017-07-30 08:00:00 23.1 3 Oeste 5 Oeste 0 -- -- 91
2017-07-30 07:00:00 21.8 4 Noroeste 7 Noroeste 0 -- -- 91
2017-07-30 06:00:00 22.5 0 Calma 6 Sudoeste 0 -- -- 87
2017-07-30 05:00:00 23.7 4 Sudoeste 18 Sudeste 0 -- -- 83
2017-07-30 04:00:00 23.4 4 Sudoeste 15 Sudeste 0 -- -- 90
2017-07-30 03:00:00 24.1 9 Sur 17 Sudeste 0 -- -- 89
2017-07-30 02:00:00 24.1 2 Este 18 Sur 0 -- -- 84
2017-07-30 01:00:00 25.2 10 Sur 22 Sur 0 -- -- 74
2017-07-30 00:00:00 25.3 10 Sur 17 Sur 0 -- -- 64
2017-07-29 23:00:00 25 6 Sur 21 Sudeste 0 -- -- 73
2017-07-29 22:00:00 25.5 11 Sur 21 Sudeste 0 -- -- 76
2017-07-29 21:00:00 26.9 12 Sudeste 22 Sudeste 0 -- -- 67
2017-07-29 20:00:00 29.4 12 Sudeste 23 Este 0 -- -- 53
2017-07-29 19:00:00 31.1 14 Sudeste 25 Sudeste 0 -- -- 45
2017-07-29 18:00:00 32.3 16 Sudeste 28 Sudeste 0 -- -- 40
2017-07-29 17:00:00 33.3 17 Sudeste 30 Sudeste 0 -- -- 38
2017-07-29 16:00:00 34.3 17 Sur 28 Sudoeste 0 -- -- 28
2017-07-29 15:00:00 34.2 17 Sur 31 Sudeste 0 -- -- 30
2017-07-29 14:00:00 34 18 Sudeste 33 Sudeste 0 -- -- 34
2017-07-29 13:00:00 33.7 17 Este 32 Este 0 -- -- 37
2017-07-29 12:00:00 32.8 16 Este 25 Este 0 -- -- 42
2017-07-29 11:00:00 32.2 9 Este 20 Este 0 -- -- 39
2017-07-29 10:00:00 29.7 10 Este 21 Este 0 -- -- 50
2017-07-29 09:00:00 26.2 9 Sur 13 Sur 0 -- -- 75
2017-07-29 08:00:00 23.8 11 Sur 15 Sudeste 0 -- -- 97
2017-07-29 07:00:00 23.2 10 Sur 17 Sudeste 0 -- -- 98
2017-07-29 06:00:00 22.6 5 Sur 9 Sur 0 -- -- 97
2017-07-29 05:00:00 22.1 4 Sudoeste -- -- 0 -- -- 94
2017-07-29 04:00:00 22.1 0 Calma 5 Este 0 -- -- 90
2017-07-29 03:00:00 22.7 3 Sudoeste 5 Oeste 0 -- -- 88
2017-07-29 02:00:00 23.7 3 Sur 14 Sur 0 -- -- 86
2017-07-29 01:00:00 24.3 5 Sudeste 19 Sur 0 -- -- 82
2017-07-29 00:00:00 25 9 Sudoeste 19 Sudeste 0 -- -- 74
2017-07-28 23:00:00 25.4 9 Sur 16 Sudeste 0 -- -- 71
2017-07-28 22:00:00 25.8 6 Sur 20 Sudeste 0 -- -- 63
2017-07-28 21:00:00 26.8 14 Sudeste 22 Sudeste 0 -- -- 63
2017-07-28 20:00:00 29.1 13 Sudeste 23 Este 0 -- -- 54
2017-07-28 19:00:00 30.9 16 Sur 26 Sudeste 0 -- -- 32
2017-07-28 18:00:00 32.2 15 Sudoeste 27 Sudoeste 0 -- -- 30
2017-07-28 17:00:00 32.6 17 Sur 27 Sur 0 -- -- 28
2017-07-28 16:00:00 32.8 15 Sur 26 Sur 0 -- -- 29
2017-07-28 15:00:00 33 16 Sur 27 Sur 0 -- -- 25
2017-07-28 14:00:00 33 17 Sur 26 Sur 0 -- -- 28
2017-07-28 13:00:00 30.8 17 Norte 26 Norte 0 -- -- 50
2017-07-28 12:00:00 30.1 18 Norte 27 Noroeste 0 -- -- 59
2017-07-28 11:00:00 30.8 11 Este 18 Este 0 -- -- 53
2017-07-28 10:00:00 28.3 9 Sur 14 Sur 0 -- -- 65
2017-07-28 09:00:00 25.6 8 Sur 11 Sur 0 -- -- 84
2017-07-28 08:00:00 23.4 5 Sur 9 Sudeste 0 -- -- 96
2017-07-28 07:00:00 22.3 5 Sudeste 9 Sur 0 -- -- 98
2017-07-28 06:00:00 22.2 5 Sur 11 Sur 0 -- -- 98
2017-07-28 05:00:00 22.3 7 Sur 10 Sur 0 -- -- 97
2017-07-28 04:00:00 22.7 5 Sur 7 Sur 0 -- -- 97
2017-07-28 03:00:00 22.9 8 Sudoeste 15 Sur 0 -- -- 95
2017-07-28 02:00:00 23.3 11 Sur 16 Sudoeste 0 -- -- 94
2017-07-28 01:00:00 23.6 12 Sur 21 Sudoeste 0 -- -- 93
2017-07-28 00:00:00 23.8 13 Sudoeste 22 Sudoeste 0 -- -- 91
2017-07-27 23:00:00 24.2 12 Sur 17 Sur 0 -- -- 88
2017-07-27 22:00:00 24.7 12 Sur 20 Sudoeste 0 -- -- 84
2017-07-27 21:00:00 25.3 16 Sudoeste 26 Sudoeste 0 -- -- 80
2017-07-27 20:00:00 27 20 Sudoeste 32 Sudoeste 0 -- -- 71
2017-07-27 19:00:00 28 18 Sudoeste 31 Sur 0 -- -- 66
2017-07-27 18:00:00 28.5 21 Sudoeste 33 Sudoeste 0 -- -- 65
2017-07-27 17:00:00 29.2 20 Sudoeste 32 Sudoeste 0 -- -- 54
2017-07-27 16:00:00 29.7 18 Sudoeste 32 Sur 0 -- -- 51
2017-07-27 15:00:00 29.8 20 Sur 32 Sur 0 -- -- 49
2017-07-27 14:00:00 29.8 18 Sur 33 Sur 0 -- -- 41
2017-07-27 13:00:00 30 14 Sur 27 Sur 0 -- -- 41
2017-07-27 12:00:00 28.9 14 Sudoeste 28 Sur 0 -- -- 44
2017-07-27 11:00:00 28.5 12 Sudoeste 20 Sudoeste 0 -- -- 48
2017-07-27 10:00:00 26.7 12 Sudoeste 21 Sudoeste 0 -- -- 55
2017-07-27 09:00:00 24.5 15 Sudoeste 24 Sudoeste 0 -- -- 71
2017-07-27 08:00:00 23 15 Sudoeste 24 Sudoeste 0 -- -- 83
2017-07-27 07:00:00 21.7 13 Sudoeste 20 Sudoeste 0 -- -- 87
2017-07-27 06:00:00 21.2 10 Sudoeste 19 Sudoeste 0 -- -- 87
2017-07-27 05:00:00 21.1 12 Sudoeste 18 Sudoeste 0 -- -- 85
2017-07-27 04:00:00 20.8 6 Sudoeste 17 Sudoeste 0 -- -- 83
2017-07-27 03:00:00 20.6 9 Sur 18 Sudoeste 0 -- -- 80
2017-07-27 02:00:00 20.1 8 Sudoeste 15 Sudoeste 0 -- -- 78
2017-07-27 01:00:00 20 9 Sudoeste 14 Sur 0 -- -- 78
2017-07-27 00:00:00 19.3 4 Sudoeste 6 Sudoeste 0 -- -- 81
2017-07-26 23:00:00 19.7 3 Oeste 4 Oeste 0 -- -- 80
2017-07-26 22:00:00 21.3 0 Calma 8 Nordeste 0 -- -- 74
2017-07-26 21:00:00 22.5 7 Nordeste 11 Nordeste 0 -- -- 67
2017-07-26 20:00:00 23.7 8 Nordeste 17 Nordeste 0 -- -- 61
2017-07-26 19:00:00 23.7 8 Nordeste 18 Nordeste 0 -- -- 62
2017-07-26 18:00:00 24.5 10 Norte 20 Nordeste 0 -- -- 60
2017-07-26 17:00:00 24.7 12 Norte 21 Nordeste 0 -- -- 59
2017-07-26 16:00:00 24.7 15 Norte 28 Norte 0 -- -- 60
2017-07-26 15:00:00 25.1 15 Norte 26 Norte 0 -- -- 61
2017-07-26 14:00:00 24.7 17 Norte 27 Norte 0 -- -- 61
2017-07-26 13:00:00 24 18 Norte 27 Nordeste 0 -- -- 65
2017-07-26 12:00:00 23.6 15 Norte 24 Norte 0 -- -- 69
2017-07-26 11:00:00 22.5 14 Norte 21 Nordeste 0 -- -- 76
2017-07-26 10:00:00 20.8 8 Norte 14 Nordeste 0 -- -- 94
2017-07-26 09:00:00 18.7 8 Norte 29 Norte 1.8 -- -- 99
2017-07-26 08:00:00 19 24 Norte 44 Norte 6.6 -- -- 93
2017-07-26 07:00:00 21.4 4 Noroeste 8 Noroeste 0 -- -- 75
2017-07-26 06:00:00 21.4 3 Este 10 Sudoeste 0 -- -- 74
2017-07-26 05:00:00 21.8 6 Sur 12 Sudoeste 0 -- -- 71
2017-07-26 04:00:00 21.9 6 Sudoeste 10 Sudoeste 0 -- -- 71
2017-07-26 03:00:00 21.6 6 Sudoeste 8 Sudoeste 0 -- -- 72
2017-07-26 02:00:00 21.3 4 Sudoeste 5 Sudoeste 0 -- -- 72
2017-07-26 01:00:00 21.9 0 Calma 5 Norte 0 -- -- 69
2017-07-26 00:00:00 22.6 4 Oeste 14 Nordeste 0 -- -- 66
2017-07-25 23:00:00 23.2 7 Norte 19 Norte 0 -- -- 64
2017-07-25 22:00:00 23.1 10 Norte 22 Norte 0 -- -- 68
2017-07-25 21:00:00 23.3 14 Norte 32 Norte 0 -- -- 65
2017-07-25 20:00:00 24.4 18 Norte 35 Norte 0 -- -- 60
2017-07-25 19:00:00 24.7 25 Norte 37 Norte 0 -- -- 59
2017-07-25 18:00:00 24.9 24 Norte 37 Norte 0 -- -- 61
2017-07-25 17:00:00 25.1 23 Norte 40 Norte 0 -- -- 59
2017-07-25 16:00:00 24.8 31 Norte 46 Norte 0 -- -- 56
2017-07-25 15:00:00 25.6 26 Norte 49 Norte 0 -- -- 54
2017-07-25 14:00:00 24.9 32 Norte 52 Nordeste 0 -- -- 56
2017-07-25 13:00:00 24.9 34 Norte 58 Norte 0 -- -- 54
2017-07-25 12:00:00 24 30 Nordeste 48 Nordeste 0 -- -- 59
2017-07-25 11:00:00 24.4 28 Norte 44 Norte 0 -- -- 58
2017-07-25 10:00:00 24.3 22 Nordeste 40 Norte 0 -- -- 56
2017-07-25 09:00:00 23.4 28 Nordeste 44 Norte 0 -- -- 59
2017-07-25 08:00:00 23.2 21 Norte 37 Nordeste 0 -- -- 59
2017-07-25 07:00:00 22.6 22 Nordeste 38 Nordeste 0 -- -- 61
2017-07-25 06:00:00 22.7 23 Nordeste 44 Nordeste 0 -- -- 62
2017-07-25 05:00:00 22.6 23 Nordeste 37 Nordeste 0 -- -- 65
2017-07-25 04:00:00 22.6 23 Nordeste 36 Nordeste 0 -- -- 67
2017-07-25 03:00:00 23.2 25 Nordeste 38 Nordeste 0 -- -- 69
2017-07-25 02:00:00 23.4 16 Nordeste 25 Norte 0 -- -- 75
2017-07-25 01:00:00 23.2 13 Este 33 Este 0 -- -- 79
2017-07-25 00:00:00 22.4 5 Nordeste 9 Nordeste 0 -- -- 83
2017-07-24 23:00:00 23 3 Nordeste 7 Nordeste 0 -- -- 74
2017-07-24 22:00:00 24.2 3 Norte 9 Noroeste 0 -- -- 70
2017-07-24 21:00:00 25.6 5 Noroeste 21 Noroeste 0 -- -- 64
2017-07-24 20:00:00 27.5 13 Oeste 26 Oeste 0 -- -- 60
2017-07-24 19:00:00 28 10 Oeste 28 Sudoeste 0 -- -- 62
2017-07-24 18:00:00 28.1 18 Oeste 30 Sudoeste 0 -- -- 66
2017-07-24 17:00:00 27.6 17 Sur 30 Sudoeste 0 -- -- 67
2017-07-24 16:00:00 27.3 4 Norte 27 Sudoeste 0 -- -- 64
2017-07-24 15:00:00 28 13 Sur 26 Sudoeste 0 -- -- 65
2017-07-24 14:00:00 27.2 8 Oeste 21 Sudoeste 0 -- -- 67
2017-07-24 13:00:00 25.1 11 Sudoeste 24 Sudoeste 0 -- -- 74
2017-07-24 12:00:00 26.1 15 Sudoeste 21 Sur 0 -- -- 70
2017-07-24 11:00:00 27.1 7 Norte 14 Nordeste 0 -- -- 61
2017-07-24 10:00:00 26 5 Nordeste 17 Nordeste 0 -- -- 68
2017-07-24 09:00:00 24.5 6 Norte 13 Nordeste 0 -- -- 77
2017-07-24 08:00:00 21.7 0 Calma 8 Oeste 0 -- -- 91
2017-07-24 07:00:00 20.5 2 Sudeste 5 Nordeste 0 -- -- 93
2017-07-24 06:00:00 21.3 2 Norte 6 Norte 0 -- -- 90
2017-07-24 05:00:00 21.5 6 Norte 10 Norte 0 -- -- 93
2017-07-24 04:00:00 22 8 Norte 13 Norte 0 -- -- 92
2017-07-24 03:00:00 22.9 9 Norte 12 Norte 0 -- -- 93
2017-07-24 02:00:00 22.7 4 Noroeste 9 Norte 0 -- -- 95
2017-07-24 01:00:00 22.3 3 Norte 13 Norte 0 -- -- 95
2017-07-24 00:00:00 22.6 6 Noroeste 12 Norte 0 -- -- 93
2017-07-23 23:00:00 23.4 6 Sur 18 Sudeste 0 -- -- 92
2017-07-23 22:00:00 23.8 17 Sudeste 24 Sudeste 0 -- -- 90
2017-07-23 21:00:00 24.3 4 Nordeste 16 Nordeste 0 -- -- 88
2017-07-23 20:00:00 25 10 Norte 23 Este 0 -- -- 86
2017-07-23 19:00:00 25.1 13 Nordeste 34 Nordeste 0 -- -- 85
2017-07-23 18:00:00 26.2 19 Nordeste 27 Nordeste 0 -- -- 82
2017-07-23 17:00:00 26.6 11 Norte 31 Nordeste 0 -- -- 81
2017-07-23 16:00:00 26.3 11 Norte 27 Este 0 -- -- 84
2017-07-23 15:00:00 26.5 13 Nordeste 31 Nordeste 0 -- -- 83
2017-07-23 14:00:00 26.5 26 Nordeste 36 Nordeste 0 -- -- 81
2017-07-23 13:00:00 27.5 9 Nordeste 25 Nordeste 0 -- -- 75
2017-07-23 12:00:00 27.7 18 Nordeste 27 Nordeste 0 -- -- 73
2017-07-23 11:00:00 27.2 17 Nordeste 27 Nordeste 0 -- -- 75
2017-07-23 10:00:00 27 17 Nordeste 23 Nordeste 0 -- -- 77
2017-07-23 09:00:00 25.2 12 Nordeste 21 Nordeste 0 -- -- 88
2017-07-23 08:00:00 23.9 7 Nordeste 12 Nordeste 0 -- -- 96
2017-07-23 07:00:00 22.2 2 Norte 8 Nordeste 0 -- -- 97
2017-07-23 06:00:00 22.1 5 Nordeste 10 Norte 0 -- -- 97
2017-07-23 05:00:00 22.2 3 Norte 6 Nordeste 0 -- -- 95
2017-07-23 04:00:00 22.5 3 Nordeste 9 Norte 0 -- -- 96
2017-07-23 03:00:00 22.6 4 Norte 9 Oeste 0 -- -- 94
2017-07-23 02:00:00 23.4 0 Calma 6 Sur 0 -- -- 92
2017-07-23 01:00:00 24.2 3 Sudoeste 8 Sur 0 -- -- 90
2017-07-23 00:00:00 24.6 6 Sur 18 Sudoeste 0 -- -- 88
2017-07-22 23:00:00 25.2 12 Sur 24 Sur 0 -- -- 86
2017-07-22 22:00:00 25.3 15 Sur 24 Sur 0 -- -- 85
2017-07-22 21:00:00 25.8 14 Sur 23 Sur 0 -- -- 83
2017-07-22 20:00:00 27.4 15 Sudoeste 23 Sudoeste 0 -- -- 72
2017-07-22 19:00:00 28.5 16 Sur 25 Sudoeste 0 -- -- 70
2017-07-22 18:00:00 29.1 18 Sudoeste 29 Sur 0 -- -- 66
2017-07-22 17:00:00 29.7 19 Sudoeste 28 Sur 0 -- -- 65
2017-07-22 16:00:00 31 16 Sur 26 Sudoeste 0 -- -- 59
2017-07-22 15:00:00 30.4 15 Sudoeste 36 Sudoeste 0 -- -- 60
2017-07-22 14:00:00 30.5 21 Sudoeste 30 Sudoeste 0 -- -- 59
2017-07-22 13:00:00 30.5 19 Sur 30 Sur 0 -- -- 58
2017-07-22 12:00:00 28.6 19 Sudoeste 28 Sudoeste 0 -- -- 68
2017-07-22 11:00:00 30.2 7 Sur 18 Sudeste 0 -- -- 60
2017-07-22 10:00:00 28.3 9 Sur 16 Sur 0 -- -- 69
2017-07-22 09:00:00 26 10 Sudeste 15 Sudeste 0 -- -- 82
2017-07-22 08:00:00 24.2 4 Sudeste 5 Sudeste 0 -- -- 92
2017-07-22 07:00:00 22.7 2 Norte 6 Nordeste 0 -- -- 96
2017-07-22 06:00:00 23.2 4 Oeste 7 Sudoeste 0 -- -- 96
2017-07-22 05:00:00 23.4 3 Sudoeste 9 Oeste 0 -- -- 95
2017-07-22 04:00:00 23.6 6 Sur 15 Sudoeste 0 -- -- 94
2017-07-22 03:00:00 24 13 Sudoeste 20 Sur 0 -- -- 92
2017-07-22 02:00:00 24.1 7 Sur 20 Sur 0 -- -- 92
2017-07-22 01:00:00 24.5 13 Sur 29 Sur 0 -- -- 89
2017-07-22 00:00:00 24.5 8 Sur 13 Sur 0 -- -- 87
2017-07-21 23:00:00 24.6 9 Sur 15 Sur 0 -- -- 87
2017-07-21 22:00:00 24.8 6 Sur 15 Sur 0 -- -- 84
2017-07-21 21:00:00 25.4 9 Sudeste 16 Sudeste 0 -- -- 81
2017-07-21 20:00:00 26.4 9 Este 20 Nordeste 0 -- -- 76
2017-07-21 19:00:00 25.5 15 Nordeste 24 Nordeste 0 -- -- 79
2017-07-21 18:00:00 27 13 Nordeste 22 Nordeste 0 -- -- 72
2017-07-21 17:00:00 27.6 17 Nordeste 27 Nordeste 0 -- -- 69
2017-07-21 16:00:00 27.6 14 Norte 22 Nordeste 0 -- -- 69
2017-07-21 15:00:00 27 10 Norte 20 Norte 0 -- -- 72
2017-07-21 14:00:00 27.6 9 Nordeste 19 Este 0 -- -- 70
2017-07-21 13:00:00 28.1 12 Nordeste 23 Este 0 -- -- 70
2017-07-21 12:00:00 27.8 12 Nordeste 22 Nordeste 0 -- -- 71
2017-07-21 11:00:00 27 12 Nordeste 21 Este 0 -- -- 75
2017-07-21 10:00:00 24.9 13 Nordeste 22 Nordeste 0 -- -- 84
2017-07-21 09:00:00 24.5 10 Nordeste 19 Nordeste 0 -- -- 89
2017-07-21 08:00:00 22.9 4 Nordeste 6 Oeste 0 -- -- 96
2017-07-21 07:00:00 22.5 5 Noroeste 6 Noroeste 0 -- -- 95
2017-07-21 06:00:00 22.8 3 Oeste 4 Oeste 0 -- -- 95
2017-07-21 05:00:00 23.5 0 Calma 5 Norte 0 -- -- 93
2017-07-21 04:00:00 24.1 4 Nordeste 10 Norte 0 -- -- 92
2017-07-21 03:00:00 24.2 7 Norte 15 Norte 0 -- -- 92
2017-07-21 02:00:00 24.3 9 Norte 15 Nordeste 0 -- -- 92
2017-07-21 01:00:00 24.2 14 Nordeste 22 Nordeste 0 -- -- 92
2017-07-21 00:00:00 24.4 13 Nordeste 21 Norte 0 -- -- 91
2017-07-20 23:00:00 24.7 13 Norte 19 Norte 0 -- -- 91
2017-07-20 22:00:00 24.7 11 Nordeste 19 Nordeste 0 -- -- 93
2017-07-20 21:00:00 25.2 13 Nordeste 21 Nordeste 0 -- -- 90
2017-07-20 20:00:00 26 13 Nordeste 24 Este 0 -- -- 83
2017-07-20 19:00:00 27.2 14 Nordeste 23 Este 0 -- -- 75
2017-07-20 18:00:00 27.8 18 Nordeste 27 Nordeste 0 -- -- 71
2017-07-20 17:00:00 28.5 12 Este 28 Este 0 -- -- 73
2017-07-20 16:00:00 28.9 16 Este 29 Este 0 -- -- 70
2017-07-20 15:00:00 29.2 13 Este 25 Sudeste 0 -- -- 70
2017-07-20 14:00:00 29.2 10 Sur 22 Este 0 -- -- 68
2017-07-20 13:00:00 29.4 13 Sudeste 25 Sudeste 0 -- -- 65
2017-07-20 12:00:00 29.3 15 Sudeste 27 Este 0 -- -- 65
2017-07-20 11:00:00 28.1 17 Sudeste 29 Este 0 -- -- 70
2017-07-20 10:00:00 27.2 14 Este 23 Este 0 -- -- 75
2017-07-20 09:00:00 26.5 13 Este 22 Este 0 -- -- 82
2017-07-20 08:00:00 23.6 3 Norte 8 Este 0 -- -- 96
2017-07-20 07:00:00 22.8 0 Calma 8 Sudeste 0 -- -- 97
2017-07-20 06:00:00 22.9 3 Sudeste 7 Sudeste 0 -- -- 96
2017-07-20 05:00:00 23.2 0 Calma 29 Sur 0 -- -- 94
2017-07-20 04:00:00 23.6 22 Sur 29 Sur 0 -- -- 94
2017-07-20 03:00:00 23.5 16 Sur 24 Sudeste 0 -- -- 93
2017-07-20 02:00:00 23.6 15 Sur 26 Sudeste 0 -- -- 92
2017-07-20 01:00:00 23.7 17 Sur 27 Sur 0 -- -- 92
2017-07-20 00:00:00 23.8 17 Sur 28 Sur 0 -- -- 89
2017-07-19 23:00:00 23.9 14 Sudeste 40 Sudeste 0 -- -- 90
2017-07-19 22:00:00 24.2 22 Sudeste 42 Sudeste 0 -- -- 87
2017-07-19 21:00:00 25.1 13 Este 25 Este 0 -- -- 82
2017-07-19 20:00:00 27.3 15 Este 26 Sudeste 0 -- -- 66
2017-07-19 19:00:00 27.6 16 Sudeste 45 Sudeste 0 -- -- 61
2017-07-19 18:00:00 27.1 24 Sudeste 41 Sudeste 0 -- -- 63
2017-07-19 17:00:00 28.5 25 Sur 39 Sudeste 0 -- -- 59
2017-07-19 16:00:00 29.7 26 Sudeste 45 Sudeste 0 -- -- 52
2017-07-19 15:00:00 29.7 28 Este 48 Este 0 -- -- 50
2017-07-19 14:00:00 29.9 31 Este 42 Este 0 -- -- 55
2017-07-19 13:00:00 30 27 Este 38 Este 0 -- -- 50
2017-07-19 12:00:00 30.4 23 Este 35 Este 0 -- -- 51
2017-07-19 11:00:00 29.5 15 Sudeste 26 Sudeste 0 -- -- 53
2017-07-19 10:00:00 28.1 14 Sudeste 24 Sudeste 0 -- -- 57
2017-07-19 09:00:00 26.1 12 Sudeste 22 Sudeste 0 -- -- 69
2017-07-19 08:00:00 23.9 15 Sur 39 Sudeste 0 -- -- 85
2017-07-19 07:00:00 22.4 20 Sudeste 29 Sudeste 0 -- -- 86
2017-07-19 06:00:00 22 12 Sudeste 23 Sudeste 0 -- -- 88
2017-07-19 05:00:00 21.2 3 Este 10 Oeste 0 -- -- 90
2017-07-19 04:00:00 21.9 0 Calma 8 Sur 0 -- -- 88
2017-07-19 03:00:00 22.5 7 Sudeste 18 Sur 0 -- -- 87
2017-07-19 02:00:00 22.5 8 Sudeste 15 Sudeste 0 -- -- 89
2017-07-19 01:00:00 22.7 3 Sur 10 Sudeste 0 -- -- 88
2017-07-19 00:00:00 23.1 8 Sudeste 21 Sur 0 -- -- 86